createdAt,value
2023-02-04T00:00:17.589Z,102169.00
2023-02-04T00:02:44.470Z,102171.53
2023-02-04T00:05:12.952Z,102177.69
2023-02-04T00:07:41.369Z,102174.13
2023-02-04T00:10:10.305Z,102177.56
2023-02-04T00:12:37.169Z,102188.13
2023-02-04T00:15:04.642Z,102184.56
2023-02-04T00:17:31.428Z,102189.78
2023-02-04T00:19:58.247Z,102192.38
2023-02-04T00:22:26.458Z,102196.63
2023-02-04T00:24:53.246Z,102213.28
2023-02-04T00:27:20.024Z,102208.84
2023-02-04T00:29:46.811Z,102215.84
2023-02-04T00:32:13.676Z,102211.38
2023-02-04T00:34:40.841Z,102220.16
2023-02-04T00:37:07.630Z,102221.81
2023-02-04T00:39:34.407Z,102232.38
2023-02-04T00:42:01.175Z,102227.00
2023-02-04T00:44:27.961Z,102237.56
2023-02-04T00:46:54.767Z,102240.09
2023-02-04T00:49:21.529Z,102246.22
2023-02-04T00:51:48.337Z,102247.91
2023-02-04T00:54:18.365Z,102255.94
2023-02-04T00:56:45.345Z,102274.41
2023-02-04T00:59:12.153Z,102281.34
2023-02-04T01:01:39.120Z,102287.53
2023-02-04T01:04:05.919Z,102298.16
2023-02-04T01:06:32.726Z,102305.19
2023-02-04T01:08:59.540Z,102311.34
2023-02-04T01:11:26.447Z,102314.84
2023-02-04T01:13:53.534Z,102324.47
2023-02-04T01:16:20.452Z,102329.81
2023-02-04T01:18:47.337Z,102342.13
2023-02-04T01:21:14.204Z,102343.03
2023-02-04T01:23:41.067Z,102353.59
2023-02-04T01:26:07.823Z,102362.44
2023-02-04T01:28:34.621Z,102376.59
2023-02-04T01:31:01.531Z,102379.13
2023-02-04T01:33:28.341Z,102379.97
2023-02-04T01:35:55.116Z,102393.09
2023-02-04T01:38:21.894Z,102401.75
2023-02-04T01:40:48.812Z,102404.31
2023-02-04T01:43:17.837Z,102410.38
2023-02-04T01:45:46.415Z,102406.84
2023-02-04T01:48:20.029Z,102413.75
2023-02-04T01:50:52.370Z,102424.25
2023-02-04T01:53:25.301Z,102432.06
2023-02-04T01:55:52.499Z,102429.16
2023-02-04T01:58:20.038Z,102436.97
2023-02-04T02:00:46.953Z,102438.59
2023-02-04T02:03:13.978Z,102431.44
2023-02-04T02:05:51.319Z,102440.22
2023-02-04T02:08:18.693Z,102444.28
2023-02-04T02:10:48.241Z,102455.31
2023-02-04T02:13:19.257Z,102465.63
2023-02-04T02:15:47.398Z,102462.53
2023-02-04T02:18:14.373Z,102471.94
2023-02-04T02:20:43.842Z,102486.75
2023-02-04T02:23:49.107Z,102486.56
2023-02-04T02:26:18.035Z,102500.38
2023-02-04T02:28:47.655Z,102495.84
2023-02-04T02:31:15.885Z,102497.66
2023-02-04T02:33:42.876Z,102502.00
2023-02-04T02:36:10.064Z,102506.25
2023-02-04T02:38:37.346Z,102505.25
2023-02-04T02:41:05.392Z,102509.34
2023-02-04T02:43:32.488Z,102517.91
2023-02-04T02:46:00.970Z,102528.25
2023-02-04T02:48:27.951Z,102519.44
2023-02-04T02:50:54.849Z,102515.94
2023-02-04T02:53:22.063Z,102527.28
2023-02-04T02:55:48.946Z,102528.13
2023-02-04T02:58:25.710Z,102537.88
2023-02-04T03:00:53.060Z,102548.41
2023-02-04T03:03:31.618Z,102553.84
2023-02-04T03:06:06.325Z,102552.13
2023-02-04T03:08:33.285Z,102555.66
2023-02-04T03:11:00.074Z,102557.44
2023-02-04T03:13:26.906Z,102569.66
2023-02-04T03:15:54.596Z,102573.94
2023-02-04T03:18:21.598Z,102585.16
2023-02-04T03:20:51.213Z,102588.44
2023-02-04T03:23:18.951Z,102597.94
2023-02-04T03:25:45.816Z,102598.63
2023-02-04T03:28:12.685Z,102609.84
2023-02-04T03:30:39.489Z,102620.09
2023-02-04T03:33:06.343Z,102619.84
2023-02-04T03:35:33.152Z,102628.44
2023-02-04T03:37:59.914Z,102638.75
2023-02-04T03:40:26.723Z,102646.44
2023-02-04T03:42:53.497Z,102649.75
2023-02-04T03:45:20.326Z,102662.59
2023-02-04T03:47:47.359Z,102658.84
2023-02-04T03:50:14.450Z,102661.16
2023-02-04T03:52:41.268Z,102663.66
2023-02-04T03:55:08.292Z,102665.16
2023-02-04T03:57:35.061Z,102668.47
2023-02-04T04:00:02.031Z,102676.22
2023-02-04T04:02:28.916Z,102681.25
2023-02-04T04:04:55.667Z,102679.22
2023-02-04T04:07:22.402Z,102687.88
2023-02-04T04:09:49.189Z,102698.16
2023-02-04T04:12:16.000Z,102693.59
2023-02-04T04:14:42.804Z,102711.81
2023-02-04T04:17:09.572Z,102712.50
2023-02-04T04:19:36.330Z,102703.47
2023-02-04T04:22:03.103Z,102714.75
2023-02-04T04:24:29.874Z,102726.84
2023-02-04T04:26:56.629Z,102733.63
2023-02-04T04:29:23.421Z,102737.03
2023-02-04T04:31:50.237Z,102738.59
2023-02-04T04:34:17.027Z,102719.94
2023-02-04T04:36:43.829Z,102726.69
2023-02-04T04:39:10.730Z,102736.16
2023-02-04T04:41:37.509Z,102742.13
2023-02-04T04:44:04.257Z,102737.53
2023-02-04T04:46:31.106Z,102745.28
2023-02-04T04:48:57.882Z,102754.78
2023-02-04T04:51:24.682Z,102760.69
2023-02-04T04:53:51.723Z,102757.91
2023-02-04T04:56:19.189Z,102763.00
2023-02-04T04:58:45.953Z,102763.63
2023-02-04T05:01:12.860Z,102776.63
2023-02-04T05:03:39.818Z,102784.34
2023-02-04T05:06:06.658Z,102780.56
2023-02-04T05:08:34.780Z,102779.56
2023-02-04T05:11:03.284Z,102787.28
2023-02-04T05:13:30.405Z,102789.81
2023-02-04T05:15:57.228Z,102798.34
2023-02-04T05:18:24.243Z,102794.75
2023-02-04T05:20:50.983Z,102803.34
2023-02-04T05:23:17.752Z,102806.72
2023-02-04T05:25:44.540Z,102808.28
2023-02-04T05:28:11.352Z,102811.59
2023-02-04T05:30:38.188Z,102818.53
2023-02-04T05:33:04.986Z,102818.31
2023-02-04T05:35:31.747Z,102832.19
2023-02-04T05:37:58.522Z,102827.69
2023-02-04T05:40:25.334Z,102839.72
2023-02-04T05:42:52.128Z,102853.69
2023-02-04T05:45:19.099Z,102858.72
2023-02-04T05:47:45.972Z,102867.34
2023-02-04T05:50:13.110Z,102877.75
2023-02-04T05:52:40.417Z,102885.47
2023-02-04T05:55:08.671Z,102884.44
2023-02-04T05:57:35.415Z,102879.94
2023-02-04T06:00:02.522Z,102881.44
2023-02-04T06:02:29.271Z,102885.69
2023-02-04T06:04:56.039Z,102897.84
2023-02-04T06:07:22.814Z,102901.16
2023-02-04T06:09:49.551Z,102901.06
2023-02-04T06:12:16.353Z,102911.38
2023-02-04T06:14:43.120Z,102912.13
2023-02-04T06:17:09.885Z,102912.81
2023-02-04T06:19:36.768Z,102909.22
2023-02-04T06:22:03.554Z,102905.59
2023-02-04T06:24:30.345Z,102917.72
2023-02-04T06:26:57.110Z,102913.19
2023-02-04T06:29:23.872Z,102915.72
2023-02-04T06:31:50.908Z,102924.41
2023-02-04T06:34:17.741Z,102924.19
2023-02-04T06:36:44.541Z,102930.19
2023-02-04T06:39:11.363Z,102937.25
2023-02-04T06:41:38.124Z,102933.53
2023-02-04T06:44:04.920Z,102936.16
2023-02-04T06:46:31.801Z,102924.66
2023-02-04T06:48:58.673Z,102926.25
2023-02-04T06:51:25.985Z,102949.00
2023-02-04T06:53:52.780Z,102946.28
2023-02-04T06:56:19.588Z,102937.38
2023-02-04T06:58:46.370Z,102947.06
2023-02-04T07:01:13.411Z,102958.47
2023-02-04T07:03:40.215Z,102960.19
2023-02-04T07:06:06.983Z,102963.63
2023-02-04T07:08:33.837Z,102967.16
2023-02-04T07:11:00.645Z,102975.91
2023-02-04T07:13:27.409Z,102972.50
2023-02-04T07:15:54.287Z,102982.19
2023-02-04T07:18:21.273Z,102991.84
2023-02-04T07:20:48.109Z,102986.81
2023-02-04T07:23:14.911Z,102995.75
2023-02-04T07:25:41.708Z,102999.47
2023-02-04T07:28:08.612Z,103004.09
2023-02-04T07:30:35.804Z,103007.84
2023-02-04T07:33:02.815Z,103011.63
2023-02-04T07:35:29.572Z,103009.50
2023-02-04T07:37:56.328Z,103011.16
2023-02-04T07:40:23.123Z,103004.13
2023-02-04T07:42:49.873Z,103011.00
2023-02-04T07:45:16.637Z,103021.53
2023-02-04T07:47:43.383Z,103024.75
2023-02-04T07:50:10.270Z,103030.66
2023-02-04T07:52:37.014Z,103033.66
2023-02-04T07:55:03.797Z,103034.72
2023-02-04T07:57:30.934Z,103041.81
2023-02-04T07:59:57.767Z,103049.75
2023-02-04T08:02:24.908Z,103056.66
2023-02-04T08:04:51.737Z,103051.41
2023-02-04T08:07:18.723Z,103055.00
2023-02-04T08:09:46.890Z,103052.38
2023-02-04T08:12:13.656Z,103056.84
2023-02-04T08:14:40.396Z,103056.84
2023-02-04T08:17:07.167Z,103065.63
2023-02-04T08:19:33.925Z,103069.34
2023-02-04T08:22:00.704Z,103056.63
2023-02-04T08:24:27.501Z,103069.59
2023-02-04T08:26:54.266Z,103066.84
2023-02-04T08:29:21.045Z,103069.44
2023-02-04T08:31:47.922Z,103060.50
2023-02-04T08:34:14.782Z,103062.81
2023-02-04T08:36:41.547Z,103070.41
2023-02-04T08:39:08.357Z,103070.75
2023-02-04T08:41:35.166Z,103067.59
2023-02-04T08:44:01.996Z,103066.13
2023-02-04T08:46:28.821Z,103073.22
2023-02-04T08:48:55.848Z,103075.03
2023-02-04T08:51:22.852Z,103083.00
2023-02-04T08:53:49.635Z,103078.63
2023-02-04T08:56:17.887Z,103082.94
2023-02-04T08:58:45.078Z,103081.94
2023-02-04T09:01:11.923Z,103085.22
2023-02-04T09:03:39.318Z,103093.88
2023-02-04T09:06:07.171Z,103085.88
2023-02-04T09:08:34.112Z,103090.31
2023-02-04T09:11:01.044Z,103086.84
2023-02-04T09:13:27.822Z,103102.81
2023-02-04T09:15:54.637Z,103100.34
2023-02-04T09:18:22.404Z,103098.72
2023-02-04T09:20:50.128Z,103110.31
2023-02-04T09:23:17.198Z,103110.41
2023-02-04T09:25:45.868Z,103111.47
2023-02-04T09:28:17.095Z,103117.81
2023-02-04T09:30:46.947Z,103126.06
2023-02-04T09:33:16.870Z,103117.56
2023-02-04T09:35:44.436Z,103124.06
2023-02-04T09:38:11.312Z,103126.22
2023-02-04T09:40:43.317Z,103134.53
2023-02-04T09:43:18.577Z,103119.03
2023-02-04T09:45:45.502Z,103129.91
2023-02-04T09:48:14.599Z,103133.78
2023-02-04T09:50:42.116Z,103142.03
2023-02-04T09:53:17.450Z,103139.66
2023-02-04T09:55:46.809Z,103141.53
2023-02-04T09:58:22.596Z,103141.75
2023-02-04T10:00:59.244Z,103150.75
2023-02-04T10:03:26.220Z,103150.09
2023-02-04T10:05:53.242Z,103162.59
2023-02-04T10:08:28.583Z,103159.28
2023-02-04T10:10:57.848Z,103168.25
2023-02-04T10:13:37.534Z,103165.84
2023-02-04T10:16:14.901Z,103172.28
2023-02-04T10:18:42.183Z,103177.66
2023-02-04T10:21:20.765Z,103182.25
2023-02-04T10:23:51.045Z,103178.84
2023-02-04T10:26:19.167Z,103174.72
2023-02-04T10:28:46.010Z,103178.63
2023-02-04T10:31:37.516Z,103187.84
2023-02-04T10:34:10.690Z,103188.16
2023-02-04T10:36:38.633Z,103186.66
2023-02-04T10:39:18.332Z,103198.41
2023-02-04T10:41:49.798Z,103202.28
2023-02-04T10:44:25.115Z,103191.94
2023-02-04T10:47:09.476Z,103196.53
2023-02-04T10:49:36.621Z,103200.22
2023-02-04T10:52:15.874Z,103202.19
2023-02-04T10:54:43.589Z,103205.16
2023-02-04T10:57:27.166Z,103198.50
2023-02-04T10:59:58.092Z,103196.28
2023-02-04T11:02:46.304Z,103196.88
2023-02-04T11:05:22.454Z,103194.06
2023-02-04T11:07:50.799Z,103195.47
2023-02-04T11:10:21.688Z,103189.75
2023-02-04T11:13:05.531Z,103189.09
2023-02-04T11:15:51.131Z,103191.13
2023-02-04T11:18:21.027Z,103197.66
2023-02-04T11:20:56.343Z,103207.75
2023-02-04T11:23:32.874Z,103207.91
2023-02-04T11:26:21.680Z,103207.13
2023-02-04T11:29:00.778Z,103209.06
2023-02-04T11:31:41.993Z,103209.34
2023-02-04T11:34:10.579Z,103207.81
2023-02-04T11:37:04.321Z,103215.88
2023-02-04T11:39:44.476Z,103214.94
2023-02-04T11:42:30.330Z,103216.28
2023-02-04T11:45:21.648Z,103209.03
2023-02-04T11:47:50.399Z,103217.69
2023-02-04T11:50:34.502Z,103214.34
2023-02-04T11:53:02.525Z,103223.28
2023-02-04T11:55:32.394Z,103223.28
2023-02-04T11:57:59.316Z,103226.75
2023-02-04T12:00:32.199Z,103209.22
2023-02-04T12:03:04.522Z,103219.94
2023-02-04T12:05:47.224Z,103212.94
2023-02-04T12:08:24.881Z,103221.75
2023-02-04T12:11:04.698Z,103213.72
2023-02-04T12:13:32.374Z,103221.53
2023-02-04T12:16:05.774Z,103217.00
2023-02-04T12:18:34.523Z,103217.84
2023-02-04T12:21:02.659Z,103223.41
2023-02-04T12:23:30.520Z,103217.50
2023-02-04T12:25:58.420Z,103221.25
2023-02-04T12:28:27.862Z,103226.78
2023-02-04T12:30:55.574Z,103224.50
2023-02-04T12:33:22.830Z,103229.91
2023-02-04T12:35:49.670Z,103225.63
2023-02-04T12:38:16.437Z,103229.00
2023-02-04T12:40:43.417Z,103238.56
2023-02-04T12:43:10.190Z,103223.28
2023-02-04T12:45:38.132Z,103229.09
2023-02-04T12:48:04.956Z,103221.75
2023-02-04T12:50:31.914Z,103233.84
2023-02-04T12:52:59.756Z,103227.44
2023-02-04T12:55:28.456Z,103227.25
2023-02-04T12:57:56.252Z,103231.50
2023-02-04T13:00:24.091Z,103226.03
2023-02-04T13:02:51.500Z,103231.06
2023-02-04T13:05:18.473Z,103246.63
2023-02-04T13:07:46.184Z,103251.66
2023-02-04T13:10:14.306Z,103255.13
2023-02-04T13:12:41.398Z,103258.47
2023-02-04T13:15:09.048Z,103254.00
2023-02-04T13:17:36.057Z,103251.34
2023-02-04T13:20:03.571Z,103252.97
2023-02-04T13:22:30.329Z,103259.94
2023-02-04T13:24:57.104Z,103260.06
2023-02-04T13:27:23.886Z,103258.25
2023-02-04T13:29:50.690Z,103261.59
2023-02-04T13:32:17.464Z,103261.31
2023-02-04T13:34:44.233Z,103258.59
2023-02-04T13:37:11.002Z,103257.56
2023-02-04T13:39:37.773Z,103252.09
2023-02-04T13:42:04.672Z,103260.94
2023-02-04T13:44:31.485Z,103261.78
2023-02-04T13:46:58.253Z,103259.16
2023-02-04T13:49:25.192Z,103266.22
2023-02-04T13:51:51.952Z,103268.94
2023-02-04T13:54:18.767Z,103262.84
2023-02-04T13:56:45.544Z,103267.34
2023-02-04T13:59:12.408Z,103261.25
2023-02-04T14:01:39.264Z,103253.22
2023-02-04T14:04:06.062Z,103248.84
2023-02-04T14:06:38.128Z,103262.97
2023-02-04T14:09:05.120Z,103267.44
2023-02-04T14:11:31.907Z,103257.00
2023-02-04T14:13:58.668Z,103258.81
2023-02-04T14:16:25.510Z,103255.25
2023-02-04T14:18:52.411Z,103259.63
2023-02-04T14:21:19.424Z,103261.31
2023-02-04T14:23:46.190Z,103252.53
2023-02-04T14:26:12.970Z,103254.34
2023-02-04T14:28:39.740Z,103250.75
2023-02-04T14:31:06.551Z,103251.50
2023-02-04T14:33:33.344Z,103261.84
2023-02-04T14:36:00.513Z,103256.56
2023-02-04T14:38:30.894Z,103252.19
2023-02-04T14:40:58.685Z,103260.03
2023-02-04T14:43:25.922Z,103267.06
2023-02-04T14:45:52.987Z,103268.81
2023-02-04T14:48:19.860Z,103275.88
2023-02-04T14:50:46.623Z,103279.28
2023-02-04T14:53:13.368Z,103277.34
2023-02-04T14:55:40.146Z,103277.19
2023-02-04T14:58:07.079Z,103278.63
2023-02-04T15:00:34.324Z,103280.13
2023-02-04T15:03:01.298Z,103278.03
2023-02-04T15:05:28.047Z,103273.25
2023-02-04T15:07:54.958Z,103268.50
2023-02-04T15:10:22.816Z,103270.09
2023-02-04T15:12:49.769Z,103274.16
2023-02-04T15:15:16.598Z,103263.31
2023-02-04T15:17:43.413Z,103264.81
2023-02-04T15:20:11.141Z,103262.84
2023-02-04T15:22:38.353Z,103269.59
2023-02-04T15:25:05.873Z,103265.81
2023-02-04T15:27:32.643Z,103270.78
2023-02-04T15:29:59.406Z,103267.00
2023-02-04T15:32:26.320Z,103271.16
2023-02-04T15:34:53.141Z,103270.00
2023-02-04T15:37:19.973Z,103270.66
2023-02-04T15:39:46.758Z,103263.34
2023-02-04T15:42:14.373Z,103268.38
2023-02-04T15:44:41.250Z,103265.34
2023-02-04T15:47:08.031Z,103267.78
2023-02-04T15:49:35.087Z,103273.63
2023-02-04T15:52:02.394Z,103271.50
2023-02-04T15:54:29.568Z,103274.66
2023-02-04T15:56:56.347Z,103275.22
2023-02-04T15:59:23.692Z,103266.00
2023-02-04T16:01:50.731Z,103273.66
2023-02-04T16:04:19.842Z,103276.03
2023-02-04T16:06:57.803Z,103278.28
2023-02-04T16:09:25.814Z,103282.38
2023-02-04T16:11:52.576Z,103275.13
2023-02-04T16:14:19.366Z,103284.59
2023-02-04T16:16:46.135Z,103277.50
2023-02-04T16:19:12.929Z,103285.31
2023-02-04T16:21:39.707Z,103287.06
2023-02-04T16:24:06.852Z,103293.16
2023-02-04T16:26:33.629Z,103289.72
2023-02-04T16:29:00.454Z,103290.59
2023-02-04T16:31:27.321Z,103293.31
2023-02-04T16:33:54.164Z,103303.03
2023-02-04T16:36:22.326Z,103303.84
2023-02-04T16:38:49.205Z,103298.59
2023-02-04T16:41:16.052Z,103290.69
2023-02-04T16:43:42.814Z,103300.41
2023-02-04T16:46:09.867Z,103292.50
2023-02-04T16:48:36.673Z,103288.06
2023-02-04T16:51:04.437Z,103296.06
2023-02-04T16:53:31.254Z,103295.03
2023-02-04T16:55:58.072Z,103298.44
2023-02-04T16:58:26.083Z,103302.78
2023-02-04T17:00:52.866Z,103307.88
2023-02-04T17:03:19.669Z,103308.59
2023-02-04T17:05:46.551Z,103305.00
2023-02-04T17:08:15.041Z,103312.53
2023-02-04T17:11:00.247Z,103315.00
2023-02-04T17:13:27.114Z,103317.44
2023-02-04T17:16:00.394Z,103328.72
2023-02-04T17:18:29.661Z,103317.91
2023-02-04T17:20:56.951Z,103320.47
2023-02-04T17:23:23.823Z,103325.66
2023-02-04T17:25:50.613Z,103321.84
2023-02-04T17:28:17.552Z,103330.66
2023-02-04T17:30:44.561Z,103323.41
2023-02-04T17:33:11.352Z,103318.03
2023-02-04T17:35:38.187Z,103330.19
2023-02-04T17:38:04.993Z,103318.47
2023-02-04T17:40:32.474Z,103325.38
2023-02-04T17:42:59.287Z,103329.75
2023-02-04T17:45:26.259Z,103322.50
2023-02-04T17:47:53.016Z,103331.19
2023-02-04T17:50:19.833Z,103336.38
2023-02-04T17:52:47.002Z,103338.81
2023-02-04T17:55:28.957Z,103330.75
2023-02-04T17:58:02.273Z,103322.47
2023-02-04T18:00:31.513Z,103332.84
2023-02-04T18:02:58.883Z,103320.31
2023-02-04T18:05:28.564Z,103325.47
2023-02-04T18:08:22.380Z,103319.94
2023-02-04T18:10:52.154Z,103317.94
2023-02-04T18:13:25.528Z,103327.28
2023-02-04T18:15:57.977Z,103324.47
2023-02-04T18:18:39.919Z,103325.16
2023-02-04T18:21:22.925Z,103320.47
2023-02-04T18:24:17.416Z,103329.81
2023-02-04T18:26:46.969Z,103326.44
2023-02-04T18:29:34.842Z,103328.66
2023-02-04T18:32:19.482Z,103330.91
2023-02-04T18:34:53.594Z,103321.81
2023-02-04T18:37:29.506Z,103327.41
2023-02-04T18:40:17.981Z,103327.97
2023-02-04T18:42:46.380Z,103334.66
2023-02-04T18:45:29.319Z,103331.81
2023-02-04T18:47:59.280Z,103334.06
2023-02-04T18:50:33.407Z,103332.25
2023-02-04T18:53:15.399Z,103338.91
2023-02-04T18:55:51.614Z,103339.34
2023-02-04T18:58:40.857Z,103347.75
2023-02-04T19:01:10.552Z,103349.03
2023-02-04T19:03:48.824Z,103349.66
2023-02-04T19:06:39.430Z,103353.69
2023-02-04T19:09:23.612Z,103359.56
2023-02-04T19:11:59.300Z,103361.88
2023-02-04T19:14:43.330Z,103361.59
2023-02-04T19:17:29.900Z,103360.41
2023-02-04T19:20:18.029Z,103358.31
2023-02-04T19:22:56.237Z,103357.22
2023-02-04T19:25:25.606Z,103360.56
2023-02-04T19:27:59.605Z,103357.69
2023-02-04T19:30:26.296Z,103362.56
2023-02-04T19:32:56.922Z,103363.25
2023-02-04T19:35:28.978Z,103374.47
2023-02-04T19:38:22.621Z,103369.09
2023-02-04T19:40:53.001Z,103374.28
2023-02-04T19:43:27.093Z,103382.94
2023-02-04T19:45:54.257Z,103379.09
2023-02-04T19:48:34.732Z,103380.69
2023-02-04T19:51:24.498Z,103378.06
2023-02-04T19:53:59.000Z,103378.91
2023-02-04T19:56:35.127Z,103362.31
2023-02-04T19:59:25.305Z,103372.63
2023-02-04T20:02:22.494Z,103374.44
2023-02-04T20:04:54.075Z,103370.09
2023-02-04T20:07:25.016Z,103364.94
2023-02-04T20:10:23.204Z,103379.88
2023-02-04T20:13:00.600Z,103374.75
2023-02-04T20:15:27.375Z,103364.25
2023-02-04T20:17:54.739Z,103368.78
2023-02-04T20:20:30.765Z,103365.56
2023-02-04T20:23:27.704Z,103366.72
2023-02-04T20:25:55.963Z,103374.78
2023-02-04T20:28:43.129Z,103371.44
2023-02-04T20:31:25.251Z,103371.66
2023-02-04T20:33:56.241Z,103366.59
2023-02-04T20:36:35.715Z,103360.63
2023-02-04T20:39:35.601Z,103363.25
2023-02-04T20:42:27.667Z,103366.00
2023-02-04T20:44:55.902Z,103360.63
2023-02-04T20:47:25.460Z,103366.00
2023-02-04T20:49:59.189Z,103364.41
2023-02-04T20:52:41.150Z,103365.31
2023-02-04T20:55:33.312Z,103375.81
2023-02-04T20:58:15.054Z,103369.66
2023-02-04T21:00:43.457Z,103367.03
2023-02-04T21:03:13.144Z,103359.16
2023-02-04T21:05:40.651Z,103359.16
2023-02-04T21:08:44.665Z,103352.06
2023-02-04T21:11:11.464Z,103348.53
2023-02-04T21:13:38.786Z,103350.25
2023-02-04T21:16:06.723Z,103343.28
2023-02-04T21:18:34.569Z,103334.59
2023-02-04T21:21:03.606Z,103342.56
2023-02-04T21:23:30.481Z,103331.25
2023-02-04T21:25:57.421Z,103324.34
2023-02-04T21:28:24.328Z,103339.41
2023-02-04T21:30:51.273Z,103335.13
2023-02-04T21:33:18.151Z,103329.09
2023-02-04T21:35:45.120Z,103324.75
2023-02-04T21:38:11.998Z,103325.66
2023-02-04T21:40:39.191Z,103334.34
2023-02-04T21:43:08.060Z,103337.75
2023-02-04T21:45:37.473Z,103328.97
2023-02-04T21:48:05.365Z,103333.22
2023-02-04T21:50:32.974Z,103338.16
2023-02-04T21:52:59.800Z,103330.97
2023-02-04T21:55:27.035Z,103317.53
2023-02-04T21:57:53.819Z,103331.25
2023-02-04T22:00:25.291Z,103324.00
2023-02-04T22:02:52.986Z,103327.22
2023-02-04T22:05:21.365Z,103337.53
2023-02-04T22:07:48.631Z,103333.69
2023-02-04T22:10:19.819Z,103337.84
2023-02-04T22:12:46.744Z,103334.91
2023-02-04T22:15:13.607Z,103333.75
2023-02-04T22:17:40.375Z,103324.69
2023-02-04T22:20:07.839Z,103317.41
2023-02-04T22:22:34.663Z,103334.56
2023-02-04T22:25:01.788Z,103324.75
2023-02-04T22:27:28.721Z,103320.09
2023-02-04T22:29:56.801Z,103322.53
2023-02-04T22:32:24.124Z,103324.13
2023-02-04T22:34:50.915Z,103316.84
2023-02-04T22:37:17.684Z,103317.56
2023-02-04T22:39:44.450Z,103315.63
2023-02-04T22:42:11.209Z,103314.63
2023-02-04T22:44:38.000Z,103319.66
2023-02-04T22:47:04.886Z,103324.69
2023-02-04T22:49:33.314Z,103323.66
2023-02-04T22:52:00.138Z,103319.94
2023-02-04T22:54:26.941Z,103327.72
2023-02-04T22:56:53.880Z,103317.91
2023-02-04T22:59:20.656Z,103314.28
2023-02-04T23:01:47.484Z,103309.72
2023-02-04T23:04:14.259Z,103313.97
2023-02-04T23:06:41.232Z,103321.59
2023-02-04T23:09:08.301Z,103322.41
2023-02-04T23:11:35.397Z,103325.72
2023-02-04T23:14:02.340Z,103326.44
2023-02-04T23:16:29.162Z,103324.59
2023-02-04T23:18:55.932Z,103323.56
2023-02-04T23:21:22.925Z,103308.44
2023-02-04T23:23:50.894Z,103318.13
2023-02-04T23:26:17.902Z,103310.97
2023-02-04T23:28:44.780Z,103314.38
2023-02-04T23:31:11.667Z,103326.56
2023-02-04T23:33:38.435Z,103332.59
2023-02-04T23:36:05.547Z,103344.78
2023-02-04T23:38:32.329Z,103349.13
2023-02-04T23:41:00.141Z,103349.13
2023-02-04T23:43:28.123Z,103350.84
2023-02-04T23:45:57.094Z,103355.06
2023-02-04T23:48:24.727Z,103350.63
2023-02-04T23:50:51.732Z,103345.28
2023-02-04T23:53:19.347Z,103332.88
2023-02-04T23:55:46.451Z,103329.34
2023-02-04T23:58:13.315Z,103327.41
